SAS2302 ENKB-ENGM
Flight info
| Callsign | SAS2302 |
|---|---|
| Flight time | 0h 53m |
| Altitude | 35000 |
| Route | BAMVA DCT OKEXA DCT BELGU |
| Aircraft | E195/M-SDE3FGIRWY/EB1 |
Departure
| Time | 2026-04-17 01:46 |
|---|---|
| Airport | Kristiansund Airport, Kvernberget (ENKB) |
Arrival
| Time | 2026-04-17 02:40 |
|---|---|
| Airport | Oslo-Gardermoen International Airport (ENGM) |
| Time | Latitude | Longitude | Altitude | Speed | Heading |
|---|---|---|---|---|---|
| 2026-04-17 01:26 | 63.11350 | 7.82616 | 205 ft | 0 kts | 341° |
| 2026-04-17 01:39 | 63.11337 | 7.82625 | 204 ft | 2 kts | 341° |
| 2026-04-17 01:40 | 63.11323 | 7.82636 | 203 ft | 1 kts | 316° |
| 2026-04-17 01:40 | 63.11318 | 7.82665 | 202 ft | 2 kts | 261° |
| 2026-04-17 01:40 | 63.11321 | 7.82684 | 202 ft | 0 kts | 244° |
| 2026-04-17 01:42 | 63.11317 | 7.82660 | 202 ft | 4 kts | 257° |
| 2026-04-17 01:43 | 63.11292 | 7.82572 | 199 ft | 11 kts | 193° |
| 2026-04-17 01:43 | 63.11219 | 7.82671 | 192 ft | 15 kts | 86° |
| 2026-04-17 01:43 | 63.11247 | 7.82892 | 196 ft | 13 kts | 72° |
| 2026-04-17 01:43 | 63.11273 | 7.83080 | 202 ft | 12 kts | 73° |
| 2026-04-17 01:44 | 63.11302 | 7.83282 | 207 ft | 16 kts | 71° |
| 2026-04-17 01:44 | 63.11344 | 7.83551 | 209 ft | 22 kts | 70° |
| 2026-04-17 01:44 | 63.11408 | 7.83951 | 188 ft | 32 kts | 71° |
| 2026-04-17 01:44 | 63.11476 | 7.84399 | 147 ft | 27 kts | 72° |
| 2026-04-17 01:45 | 63.11534 | 7.84788 | 136 ft | 23 kts | 72° |
| 2026-04-17 01:45 | 63.11578 | 7.85046 | 149 ft | 10 kts | 57° |
| 2026-04-17 01:45 | 63.11598 | 7.85121 | 155 ft | 1 kts | 109° |
| 2026-04-17 01:45 | 63.11589 | 7.85128 | 156 ft | 3 kts | 187° |
| 2026-04-17 01:46 | 63.11558 | 7.84934 | 142 ft | 30 kts | 254° |
| 2026-04-17 01:46 | 63.11390 | 7.83817 | 199 ft | 117 kts | 252° |
| 2026-04-17 01:46 | 63.11062 | 7.81623 | 420 ft | 171 kts | 251° |
| 2026-04-17 01:46 | 63.10691 | 7.79032 | 1063 ft | 190 kts | 251° |
| 2026-04-17 01:47 | 63.10255 | 7.76246 | 1583 ft | 180 kts | 249° |
| 2026-04-17 01:47 | 63.09866 | 7.73784 | 1560 ft | 164 kts | 250° |
| 2026-04-17 01:47 | 63.09465 | 7.71194 | 1693 ft | 200 kts | 250° |
| 2026-04-17 01:47 | 63.08985 | 7.68087 | 2323 ft | 228 kts | 250° |
| 2026-04-17 01:48 | 63.08477 | 7.64791 | 3521 ft | 228 kts | 250° |
| 2026-04-17 01:48 | 63.07973 | 7.61523 | 4487 ft | 238 kts | 250° |
| 2026-04-17 01:48 | 63.07440 | 7.58070 | 5485 ft | 247 kts | 250° |
| 2026-04-17 01:48 | 63.06887 | 7.54495 | 6575 ft | 251 kts | 249° |
| 2026-04-17 01:49 | 63.05977 | 7.51404 | 7617 ft | 251 kts | 217° |
| 2026-04-17 01:49 | 63.04380 | 7.50103 | 8633 ft | 255 kts | 182° |
| 2026-04-17 01:49 | 63.02661 | 7.50923 | 9618 ft | 261 kts | 163° |
| 2026-04-17 01:49 | 63.00935 | 7.52213 | 10631 ft | 264 kts | 163° |
| 2026-04-17 01:50 | 62.99208 | 7.53506 | 11503 ft | 271 kts | 163° |
| 2026-04-17 01:50 | 62.97378 | 7.54879 | 12300 ft | 282 kts | 162° |
| 2026-04-17 01:50 | 62.95700 | 7.57196 | 13015 ft | 298 kts | 141° |
| 2026-04-17 01:50 | 62.94147 | 7.60367 | 13586 ft | 315 kts | 140° |
| 2026-04-17 01:51 | 62.92536 | 7.63672 | 14320 ft | 326 kts | 140° |
| 2026-04-17 01:51 | 62.90855 | 7.67113 | 15206 ft | 332 kts | 140° |
| 2026-04-17 01:51 | 62.89196 | 7.70503 | 16093 ft | 336 kts | 140° |
| 2026-04-17 01:51 | 62.87759 | 7.73431 | 16851 ft | 340 kts | 141° |
| 2026-04-17 01:52 | 62.85806 | 7.77407 | 17780 ft | 346 kts | 141° |
| 2026-04-17 01:52 | 62.84020 | 7.81035 | 18582 ft | 352 kts | 141° |
| 2026-04-17 01:52 | 62.82222 | 7.84680 | 19360 ft | 358 kts | 141° |
| 2026-04-17 01:52 | 62.80394 | 7.88380 | 20158 ft | 363 kts | 141° |
| 2026-04-17 01:53 | 62.78561 | 7.92083 | 20960 ft | 367 kts | 141° |
| 2026-04-17 01:53 | 62.76695 | 7.95848 | 21745 ft | 370 kts | 141° |
| 2026-04-17 01:53 | 62.74799 | 7.99665 | 22466 ft | 375 kts | 141° |
| 2026-04-17 01:53 | 62.72871 | 8.03540 | 23158 ft | 380 kts | 141° |
| 2026-04-17 01:54 | 62.70943 | 8.07406 | 23848 ft | 385 kts | 141° |
| 2026-04-17 01:54 | 62.68991 | 8.11315 | 24535 ft | 389 kts | 141° |
| 2026-04-17 01:54 | 62.67003 | 8.15288 | 25270 ft | 392 kts | 141° |
| 2026-04-17 01:54 | 62.64993 | 8.19280 | 25979 ft | 394 kts | 143° |
| 2026-04-17 01:55 | 62.62869 | 8.23074 | 26657 ft | 397 kts | 144° |
| 2026-04-17 01:55 | 62.60738 | 8.26848 | 27311 ft | 400 kts | 144° |
| 2026-04-17 01:55 | 62.58591 | 8.30648 | 27945 ft | 404 kts | 144° |
| 2026-04-17 01:55 | 62.56404 | 8.34514 | 28581 ft | 408 kts | 144° |
| 2026-04-17 01:56 | 62.54198 | 8.38405 | 29223 ft | 410 kts | 144° |
| 2026-04-17 01:56 | 62.51997 | 8.42280 | 29832 ft | 414 kts | 144° |
| 2026-04-17 01:56 | 62.50036 | 8.45729 | 30357 ft | 417 kts | 144° |
| 2026-04-17 01:56 | 62.47619 | 8.49969 | 30951 ft | 421 kts | 144° |
| 2026-04-17 01:57 | 62.45322 | 8.53988 | 31442 ft | 424 kts | 144° |
| 2026-04-17 01:57 | 62.43022 | 8.58005 | 31925 ft | 428 kts | 144° |
| 2026-04-17 01:57 | 62.40738 | 8.61988 | 32393 ft | 431 kts | 144° |
| 2026-04-17 01:57 | 62.38405 | 8.66047 | 32946 ft | 431 kts | 145° |
| 2026-04-17 01:58 | 62.36330 | 8.69650 | 33472 ft | 429 kts | 144° |
| 2026-04-17 01:58 | 62.34029 | 8.73638 | 33974 ft | 427 kts | 144° |
| 2026-04-17 01:58 | 62.31736 | 8.77604 | 34467 ft | 425 kts | 144° |
| 2026-04-17 01:58 | 62.29442 | 8.81563 | 34947 ft | 424 kts | 144° |
| 2026-04-17 01:59 | 62.27171 | 8.85474 | 35095 ft | 425 kts | 144° |
| 2026-04-17 01:59 | 62.24817 | 8.89519 | 35126 ft | 437 kts | 144° |
| 2026-04-17 01:59 | 62.22424 | 8.93624 | 35124 ft | 448 kts | 144° |
| 2026-04-17 02:00 | 62.17530 | 9.01996 | 35117 ft | 453 kts | 144° |
| 2026-04-17 02:00 | 62.12617 | 9.10362 | 35116 ft | 452 kts | 144° |
| 2026-04-17 02:01 | 62.07747 | 9.18619 | 35134 ft | 453 kts | 144° |
| 2026-04-17 02:01 | 62.02793 | 9.26983 | 35158 ft | 452 kts | 144° |
| 2026-04-17 02:02 | 61.97881 | 9.35239 | 35140 ft | 452 kts | 144° |
| 2026-04-17 02:02 | 61.92937 | 9.43516 | 35134 ft | 453 kts | 144° |
| 2026-04-17 02:03 | 61.88010 | 9.51730 | 35123 ft | 453 kts | 144° |
| 2026-04-17 02:03 | 61.83064 | 9.59940 | 35130 ft | 453 kts | 144° |
| 2026-04-17 02:04 | 61.78254 | 9.67891 | 35152 ft | 453 kts | 145° |
| 2026-04-17 02:04 | 61.73328 | 9.75999 | 35155 ft | 453 kts | 145° |
| 2026-04-17 02:05 | 61.68550 | 9.83833 | 35169 ft | 453 kts | 144° |
| 2026-04-17 02:05 | 61.63491 | 9.92093 | 35166 ft | 449 kts | 144° |
| 2026-04-17 02:05 | 61.61364 | 9.95557 | 35139 ft | 436 kts | 145° |
| 2026-04-17 02:06 | 61.58722 | 9.99849 | 35168 ft | 433 kts | 144° |
| 2026-04-17 02:06 | 61.53944 | 10.07584 | 34980 ft | 439 kts | 144° |
| 2026-04-17 02:06 | 61.51539 | 10.11469 | 34426 ft | 441 kts | 145° |
| 2026-04-17 02:07 | 61.49111 | 10.15381 | 33890 ft | 441 kts | 145° |
| 2026-04-17 02:07 | 61.46725 | 10.19220 | 33291 ft | 440 kts | 145° |
| 2026-04-17 02:07 | 61.44306 | 10.23101 | 32667 ft | 436 kts | 145° |
| 2026-04-17 02:07 | 61.41911 | 10.26938 | 32103 ft | 436 kts | 145° |
| 2026-04-17 02:08 | 61.39514 | 10.30768 | 31520 ft | 439 kts | 145° |
| 2026-04-17 02:08 | 61.37080 | 10.34650 | 30918 ft | 442 kts | 145° |
| 2026-04-17 02:08 | 61.34680 | 10.38474 | 30318 ft | 433 kts | 145° |
| 2026-04-17 02:08 | 61.32318 | 10.42229 | 29737 ft | 424 kts | 145° |
| 2026-04-17 02:09 | 61.30028 | 10.45860 | 29199 ft | 415 kts | 146° |
| 2026-04-17 02:09 | 61.27770 | 10.49435 | 28649 ft | 406 kts | 146° |
| 2026-04-17 02:09 | 61.25532 | 10.52829 | 28120 ft | 396 kts | 151° |
| 2026-04-17 02:09 | 61.23123 | 10.55352 | 27617 ft | 383 kts | 162° |
| 2026-04-17 02:10 | 61.20907 | 10.56673 | 27250 ft | 369 kts | 173° |
| 2026-04-17 02:10 | 61.18189 | 10.57409 | 26491 ft | 364 kts | 182° |
| 2026-04-17 02:10 | 61.15714 | 10.57156 | 26052 ft | 353 kts | 189° |
| 2026-04-17 02:10 | 61.13411 | 10.56533 | 25608 ft | 347 kts | 192° |
| 2026-04-17 02:11 | 61.10989 | 10.55712 | 25153 ft | 346 kts | 193° |
| 2026-04-17 02:11 | 61.08664 | 10.54861 | 24713 ft | 346 kts | 193° |
| 2026-04-17 02:11 | 61.06311 | 10.53976 | 24261 ft | 346 kts | 193° |
| 2026-04-17 02:11 | 61.03916 | 10.53067 | 23799 ft | 344 kts | 193° |
| 2026-04-17 02:12 | 61.01572 | 10.52176 | 23350 ft | 341 kts | 193° |
| 2026-04-17 02:12 | 60.99222 | 10.51282 | 22899 ft | 339 kts | 193° |
| 2026-04-17 02:12 | 60.96900 | 10.50399 | 22442 ft | 336 kts | 193° |
| 2026-04-17 02:12 | 60.94600 | 10.49526 | 21997 ft | 334 kts | 193° |
| 2026-04-17 02:13 | 60.92307 | 10.48657 | 21549 ft | 332 kts | 193° |
| 2026-04-17 02:13 | 60.90003 | 10.47784 | 21095 ft | 330 kts | 193° |
| 2026-04-17 02:13 | 60.87752 | 10.46935 | 20666 ft | 328 kts | 193° |
| 2026-04-17 02:13 | 60.85489 | 10.46083 | 20215 ft | 327 kts | 193° |
| 2026-04-17 02:14 | 60.83243 | 10.45239 | 19787 ft | 325 kts | 193° |
| 2026-04-17 02:14 | 60.80983 | 10.44391 | 19344 ft | 323 kts | 193° |
| 2026-04-17 02:14 | 60.78764 | 10.43560 | 18919 ft | 320 kts | 193° |
| 2026-04-17 02:14 | 60.76559 | 10.42735 | 18475 ft | 318 kts | 193° |
| 2026-04-17 02:15 | 60.74403 | 10.41929 | 18075 ft | 316 kts | 193° |
| 2026-04-17 02:15 | 60.72245 | 10.41124 | 17659 ft | 314 kts | 193° |
| 2026-04-17 02:15 | 60.70358 | 10.40421 | 17294 ft | 312 kts | 193° |
| 2026-04-17 02:15 | 60.68045 | 10.39560 | 16847 ft | 310 kts | 193° |
| 2026-04-17 02:16 | 60.65956 | 10.38784 | 16442 ft | 308 kts | 193° |
| 2026-04-17 02:16 | 60.63834 | 10.37996 | 16038 ft | 306 kts | 193° |
| 2026-04-17 02:16 | 60.61774 | 10.37233 | 15638 ft | 304 kts | 193° |
| 2026-04-17 02:16 | 60.59683 | 10.36458 | 15230 ft | 303 kts | 193° |
| 2026-04-17 02:17 | 60.57632 | 10.35700 | 14831 ft | 301 kts | 192° |
| 2026-04-17 02:17 | 60.55600 | 10.34950 | 14433 ft | 299 kts | 192° |
| 2026-04-17 02:17 | 60.53561 | 10.34198 | 14034 ft | 297 kts | 192° |
| 2026-04-17 02:17 | 60.51552 | 10.33458 | 13651 ft | 296 kts | 192° |
| 2026-04-17 02:18 | 60.49520 | 10.32711 | 13251 ft | 294 kts | 192° |
| 2026-04-17 02:18 | 60.47532 | 10.31981 | 12861 ft | 292 kts | 192° |
| 2026-04-17 02:18 | 60.45546 | 10.31252 | 12471 ft | 290 kts | 192° |
| 2026-04-17 02:18 | 60.43575 | 10.30559 | 12087 ft | 288 kts | 188° |
| 2026-04-17 02:19 | 60.41603 | 10.30188 | 11764 ft | 287 kts | 187° |
| 2026-04-17 02:19 | 60.39614 | 10.29842 | 11386 ft | 286 kts | 186° |
| 2026-04-17 02:19 | 60.37667 | 10.29505 | 11016 ft | 284 kts | 186° |
| 2026-04-17 02:19 | 60.35706 | 10.29167 | 10642 ft | 279 kts | 186° |
| 2026-04-17 02:20 | 60.33814 | 10.28841 | 10279 ft | 273 kts | 186° |
| 2026-04-17 02:20 | 60.31935 | 10.28518 | 9915 ft | 268 kts | 186° |
| 2026-04-17 02:20 | 60.30102 | 10.28203 | 9567 ft | 264 kts | 186° |
| 2026-04-17 02:20 | 60.28293 | 10.27892 | 9235 ft | 261 kts | 186° |
| 2026-04-17 02:21 | 60.26498 | 10.27584 | 9226 ft | 254 kts | 186° |
| 2026-04-17 02:21 | 60.24809 | 10.27295 | 9204 ft | 239 kts | 186° |
| 2026-04-17 02:21 | 60.23163 | 10.27013 | 9212 ft | 238 kts | 186° |
| 2026-04-17 02:21 | 60.21508 | 10.26730 | 9229 ft | 240 kts | 186° |
| 2026-04-17 02:22 | 60.19848 | 10.26446 | 9232 ft | 241 kts | 186° |
| 2026-04-17 02:22 | 60.18175 | 10.26160 | 9227 ft | 242 kts | 186° |
| 2026-04-17 02:22 | 60.16502 | 10.25875 | 9230 ft | 242 kts | 186° |
| 2026-04-17 02:22 | 60.14819 | 10.25588 | 9233 ft | 242 kts | 186° |
| 2026-04-17 02:23 | 60.13162 | 10.25258 | 9233 ft | 242 kts | 194° |
| 2026-04-17 02:23 | 60.11554 | 10.24213 | 9256 ft | 242 kts | 200° |
| 2026-04-17 02:23 | 60.09986 | 10.23086 | 9249 ft | 243 kts | 200° |
| 2026-04-17 02:23 | 60.08390 | 10.21937 | 9247 ft | 242 kts | 200° |
| 2026-04-17 02:24 | 60.06817 | 10.20806 | 9251 ft | 243 kts | 200° |
| 2026-04-17 02:24 | 60.05225 | 10.19662 | 9242 ft | 242 kts | 200° |
| 2026-04-17 02:24 | 60.03636 | 10.18520 | 9243 ft | 241 kts | 200° |
| 2026-04-17 02:24 | 60.02003 | 10.17896 | 9250 ft | 243 kts | 181° |
| 2026-04-17 02:25 | 60.00323 | 10.17907 | 9256 ft | 243 kts | 180° |
| 2026-04-17 02:25 | 59.98638 | 10.17930 | 9250 ft | 243 kts | 181° |
| 2026-04-17 02:25 | 59.96950 | 10.17957 | 9248 ft | 243 kts | 181° |
| 2026-04-17 02:25 | 59.95244 | 10.17986 | 9247 ft | 244 kts | 180° |
| 2026-04-17 02:26 | 59.93570 | 10.18015 | 9248 ft | 244 kts | 181° |
| 2026-04-17 02:26 | 59.91867 | 10.18121 | 9242 ft | 245 kts | 169° |
| 2026-04-17 02:26 | 59.90250 | 10.19163 | 9267 ft | 247 kts | 161° |
| 2026-04-17 02:26 | 59.88627 | 10.20363 | 9251 ft | 247 kts | 161° |
| 2026-04-17 02:27 | 59.87040 | 10.21541 | 9254 ft | 247 kts | 161° |
| 2026-04-17 02:27 | 59.85436 | 10.22730 | 9242 ft | 246 kts | 161° |
| 2026-04-17 02:27 | 59.83837 | 10.23917 | 9244 ft | 247 kts | 161° |
| 2026-04-17 02:27 | 59.82233 | 10.25107 | 9244 ft | 247 kts | 161° |
| 2026-04-17 02:28 | 59.80742 | 10.26802 | 9254 ft | 248 kts | 143° |
| 2026-04-17 02:28 | 59.79380 | 10.28911 | 9261 ft | 249 kts | 143° |
| 2026-04-17 02:28 | 59.78012 | 10.31034 | 9255 ft | 249 kts | 143° |
| 2026-04-17 02:28 | 59.76749 | 10.33339 | 9245 ft | 251 kts | 122° |
| 2026-04-17 02:29 | 59.76307 | 10.36657 | 9295 ft | 256 kts | 84° |
| 2026-04-17 02:29 | 59.76960 | 10.39866 | 9367 ft | 258 kts | 48° |
| 2026-04-17 02:29 | 59.78217 | 10.42411 | 9423 ft | 259 kts | 44° |
| 2026-04-17 02:29 | 59.79491 | 10.44906 | 9424 ft | 258 kts | 44° |
| 2026-04-17 02:30 | 59.80734 | 10.47345 | 9425 ft | 258 kts | 44° |
| 2026-04-17 02:30 | 59.82006 | 10.49844 | 9430 ft | 258 kts | 44° |
| 2026-04-17 02:30 | 59.83284 | 10.52356 | 9439 ft | 258 kts | 44° |
| 2026-04-17 02:30 | 59.84562 | 10.54874 | 9443 ft | 259 kts | 44° |
| 2026-04-17 02:31 | 59.85825 | 10.57362 | 9276 ft | 261 kts | 44° |
| 2026-04-17 02:31 | 59.87057 | 10.59793 | 8977 ft | 260 kts | 44° |
| 2026-04-17 02:31 | 59.88313 | 10.62275 | 8648 ft | 258 kts | 44° |
| 2026-04-17 02:31 | 59.89582 | 10.64786 | 8307 ft | 255 kts | 44° |
| 2026-04-17 02:32 | 59.90845 | 10.67286 | 7965 ft | 252 kts | 45° |
| 2026-04-17 02:32 | 59.92067 | 10.69708 | 7634 ft | 250 kts | 46° |
| 2026-04-17 02:32 | 59.93296 | 10.72148 | 7305 ft | 248 kts | 46° |
| 2026-04-17 02:32 | 59.94504 | 10.74548 | 6981 ft | 247 kts | 46° |
| 2026-04-17 02:33 | 59.95708 | 10.76943 | 6657 ft | 245 kts | 46° |
| 2026-04-17 02:33 | 59.96904 | 10.79359 | 6329 ft | 243 kts | 52° |
| 2026-04-17 02:33 | 59.97611 | 10.82408 | 5890 ft | 243 kts | 77° |
| 2026-04-17 02:33 | 59.98025 | 10.85646 | 5539 ft | 241 kts | 77° |
| 2026-04-17 02:34 | 59.98430 | 10.88860 | 5205 ft | 239 kts | 78° |
| 2026-04-17 02:34 | 59.98824 | 10.92016 | 4890 ft | 228 kts | 78° |
| 2026-04-17 02:34 | 59.99269 | 10.94918 | 4625 ft | 214 kts | 60° |
| 2026-04-17 02:34 | 60.00376 | 10.96721 | 4360 ft | 208 kts | 23° |
| 2026-04-17 02:35 | 60.01682 | 10.97781 | 4131 ft | 198 kts | 20° |
| 2026-04-17 02:35 | 60.02947 | 10.98507 | 3941 ft | 185 kts | 15° |
| 2026-04-17 02:35 | 60.05312 | 10.99833 | 3467 ft | 169 kts | 16° |
| 2026-04-17 02:36 | 60.06412 | 11.00458 | 3236 ft | 162 kts | 16° |
| 2026-04-17 02:36 | 60.07458 | 11.01053 | 3013 ft | 153 kts | 16° |
| 2026-04-17 02:36 | 60.08440 | 11.01612 | 2784 ft | 144 kts | 16° |
| 2026-04-17 02:36 | 60.09414 | 11.02169 | 2614 ft | 146 kts | 16° |
| 2026-04-17 02:37 | 60.10393 | 11.02728 | 2428 ft | 149 kts | 16° |
| 2026-04-17 02:37 | 60.11304 | 11.03245 | 2242 ft | 149 kts | 16° |
| 2026-04-17 02:37 | 60.12324 | 11.03829 | 2024 ft | 148 kts | 16° |
| 2026-04-17 02:37 | 60.13308 | 11.04394 | 1806 ft | 143 kts | 15° |
| 2026-04-17 02:38 | 60.14240 | 11.04928 | 1609 ft | 139 kts | 15° |
| 2026-04-17 02:38 | 60.15167 | 11.05460 | 1419 ft | 136 kts | 15° |
| 2026-04-17 02:38 | 60.16071 | 11.05979 | 1233 ft | 135 kts | 15° |
| 2026-04-17 02:38 | 60.16958 | 11.06483 | 1042 ft | 133 kts | 15° |
| 2026-04-17 02:39 | 60.17846 | 11.06993 | 864 ft | 131 kts | 17° |
| 2026-04-17 02:39 | 60.18725 | 11.07503 | 698 ft | 130 kts | 15° |
| 2026-04-17 02:39 | 60.19530 | 11.07966 | 687 ft | 102 kts | 15° |
| 2026-04-17 02:39 | 60.20072 | 11.08282 | 686 ft | 59 kts | 23° |
| 2026-04-17 02:40 | 60.20250 | 11.08607 | 686 ft | 17 kts | 101° |
| 2026-04-17 02:40 | 60.20208 | 11.08748 | 686 ft | 12 kts | 190° |
| 2026-04-17 02:40 | 60.20084 | 11.08681 | 686 ft | 20 kts | 197° |
| 2026-04-17 02:40 | 60.19970 | 11.08616 | 686 ft | 13 kts | 196° |
| 2026-04-17 02:41 | 60.19892 | 11.08571 | 686 ft | 10 kts | 195° |
| 2026-04-17 02:41 | 60.19814 | 11.08527 | 686 ft | 12 kts | 196° |
| 2026-04-17 02:41 | 60.19718 | 11.08471 | 686 ft | 13 kts | 196° |
| 2026-04-17 02:41 | 60.19622 | 11.08416 | 686 ft | 12 kts | 196° |
| 2026-04-17 02:42 | 60.19556 | 11.08418 | 686 ft | 9 kts | 141° |
| 2026-04-17 02:42 | 60.19530 | 11.08565 | 686 ft | 11 kts | 103° |
| 2026-04-17 02:42 | 60.19513 | 11.08702 | 686 ft | 9 kts | 106° |
| 2026-04-17 02:42 | 60.19492 | 11.08848 | 686 ft | 12 kts | 105° |
| 2026-04-17 02:43 | 60.19471 | 11.08996 | 686 ft | 9 kts | 106° |
| 2026-04-17 02:43 | 60.19455 | 11.09104 | 686 ft | 6 kts | 106° |
| 2026-04-17 02:43 | 60.19441 | 11.09199 | 686 ft | 5 kts | 106° |
| 2026-04-17 02:43 | 60.19450 | 11.09243 | 686 ft | 4 kts | 29° |
| 2026-04-17 02:44 | 60.19471 | 11.09261 | 686 ft | 3 kts | 19° |
| 2026-04-17 02:44 | 60.19484 | 11.09269 | 686 ft | 2 kts | 16° |
| 2026-04-17 02:44 | 60.19485 | 11.09270 | 686 ft | 0 kts | 16° |